sensor_id;sensor_type;location;lat;lon;timestamp;P1;durP1;ratioP1;P2;durP2;ratioP2
72797;SDS011;61084;55.816;37.036;2023-06-19T00:02:10;6.15;;;2.30;;
72797;SDS011;61084;55.816;37.036;2023-06-19T00:04:36;5.50;;;2.42;;
72797;SDS011;61084;55.816;37.036;2023-06-19T00:07:03;7.55;;;2.50;;
72797;SDS011;61084;55.816;37.036;2023-06-19T00:09:29;9.85;;;2.53;;
72797;SDS011;61084;55.816;37.036;2023-06-19T00:11:55;7.32;;;2.50;;
72797;SDS011;61084;55.816;37.036;2023-06-19T00:14:21;8.32;;;2.72;;
72797;SDS011;61084;55.816;37.036;2023-06-19T00:16:47;5.75;;;2.30;;
72797;SDS011;61084;55.816;37.036;2023-06-19T00:19:13;6.72;;;2.88;;
72797;SDS011;61084;55.816;37.036;2023-06-19T00:21:39;4.32;;;2.75;;
72797;SDS011;61084;55.816;37.036;2023-06-19T00:24:05;5.00;;;2.47;;
72797;SDS011;61084;55.816;37.036;2023-06-19T00:26:31;7.28;;;2.42;;
72797;SDS011;61084;55.816;37.036;2023-06-19T00:28:57;7.15;;;2.78;;
72797;SDS011;61084;55.816;37.036;2023-06-19T00:31:24;6.18;;;2.72;;
72797;SDS011;61084;55.816;37.036;2023-06-19T00:33:52;6.72;;;3.05;;
72797;SDS011;61084;55.816;37.036;2023-06-19T00:36:18;5.20;;;2.72;;
72797;SDS011;61084;55.816;37.036;2023-06-19T00:38:49;5.20;;;2.90;;
72797;SDS011;61084;55.816;37.036;2023-06-19T00:41:15;5.85;;;3.13;;
72797;SDS011;61084;55.816;37.036;2023-06-19T00:43:44;7.32;;;2.55;;
72797;SDS011;61084;55.816;37.036;2023-06-19T00:46:11;6.03;;;2.92;;
72797;SDS011;61084;55.816;37.036;2023-06-19T00:48:37;4.43;;;2.67;;
72797;SDS011;61084;55.816;37.036;2023-06-19T00:53:30;6.55;;;2.83;;
72797;SDS011;61084;55.816;37.036;2023-06-19T00:55:57;7.95;;;2.72;;
72797;SDS011;61084;55.816;37.036;2023-06-19T00:58:24;5.10;;;2.53;;
72797;SDS011;61084;55.816;37.036;2023-06-19T01:00:50;7.28;;;2.15;;
72797;SDS011;61084;55.816;37.036;2023-06-19T01:03:16;9.70;;;2.70;;
72797;SDS011;61084;55.816;37.036;2023-06-19T01:05:42;6.55;;;2.80;;
72797;SDS011;61084;55.816;37.036;2023-06-19T01:08:19;6.35;;;2.40;;
72797;SDS011;61084;55.816;37.036;2023-06-19T01:10:54;4.13;;;2.30;;
72797;SDS011;61084;55.816;37.036;2023-06-19T01:13:31;7.80;;;2.65;;
72797;SDS011;61084;55.816;37.036;2023-06-19T01:16:10;9.25;;;2.67;;
72797;SDS011;61084;55.816;37.036;2023-06-19T01:18:36;7.50;;;2.78;;
72797;SDS011;61084;55.816;37.036;2023-06-19T01:21:13;7.68;;;2.53;;
72797;SDS011;61084;55.816;37.036;2023-06-19T01:23:41;6.75;;;2.47;;
72797;SDS011;61084;55.816;37.036;2023-06-19T01:26:07;8.10;;;2.70;;
72797;SDS011;61084;55.816;37.036;2023-06-19T01:28:37;4.47;;;2.38;;
72797;SDS011;61084;55.816;37.036;2023-06-19T01:31:12;8.40;;;2.80;;
72797;SDS011;61084;55.816;37.036;2023-06-19T01:33:47;3.88;;;2.42;;
72797;SDS011;61084;55.816;37.036;2023-06-19T01:36:15;6.30;;;2.85;;
72797;SDS011;61084;55.816;37.036;2023-06-19T01:38:44;4.78;;;2.60;;
72797;SDS011;61084;55.816;37.036;2023-06-19T01:41:13;7.57;;;2.55;;
72797;SDS011;61084;55.816;37.036;2023-06-19T01:43:42;3.63;;;2.35;;
72797;SDS011;61084;55.816;37.036;2023-06-19T01:48:35;4.63;;;2.60;;
72797;SDS011;61084;55.816;37.036;2023-06-19T01:51:01;4.65;;;2.95;;
72797;SDS011;61084;55.816;37.036;2023-06-19T01:53:30;12.88;;;3.63;;
72797;SDS011;61084;55.816;37.036;2023-06-19T01:55:57;9.27;;;2.90;;
72797;SDS011;61084;55.816;37.036;2023-06-19T01:58:24;5.15;;;2.17;;
72797;SDS011;61084;55.816;37.036;2023-06-19T02:00:50;8.45;;;2.70;;
72797;SDS011;61084;55.816;37.036;2023-06-19T02:03:16;6.72;;;3.35;;
72797;SDS011;61084;55.816;37.036;2023-06-19T02:05:42;5.68;;;3.25;;
72797;SDS011;61084;55.816;37.036;2023-06-19T02:08:09;10.02;;;2.83;;
72797;SDS011;61084;55.816;37.036;2023-06-19T02:10:36;5.43;;;2.60;;
72797;SDS011;61084;55.816;37.036;2023-06-19T02:13:03;4.85;;;2.60;;
72797;SDS011;61084;55.816;37.036;2023-06-19T02:17:55;6.05;;;2.50;;
72797;SDS011;61084;55.816;37.036;2023-06-19T02:20:22;4.80;;;2.60;;
72797;SDS011;61084;55.816;37.036;2023-06-19T02:22:49;7.93;;;2.85;;
72797;SDS011;61084;55.816;37.036;2023-06-19T02:25:17;4.55;;;2.10;;
72797;SDS011;61084;55.816;37.036;2023-06-19T02:27:45;6.97;;;3.05;;
72797;SDS011;61084;55.816;37.036;2023-06-19T02:30:11;6.38;;;2.50;;
72797;SDS011;61084;55.816;37.036;2023-06-19T02:32:37;5.25;;;2.30;;
72797;SDS011;61084;55.816;37.036;2023-06-19T02:35:07;7.88;;;2.63;;
72797;SDS011;61084;55.816;37.036;2023-06-19T02:37:35;5.30;;;2.97;;
72797;SDS011;61084;55.816;37.036;2023-06-19T02:40:07;8.20;;;2.60;;
72797;SDS011;61084;55.816;37.036;2023-06-19T02:42:34;4.47;;;2.15;;
72797;SDS011;61084;55.816;37.036;2023-06-19T02:45:02;5.43;;;2.13;;
72797;SDS011;61084;55.816;37.036;2023-06-19T02:47:39;3.88;;;2.20;;
72797;SDS011;61084;55.816;37.036;2023-06-19T02:50:06;7.05;;;2.17;;
72797;SDS011;61084;55.816;37.036;2023-06-19T02:52:32;5.00;;;2.28;;
72797;SDS011;61084;55.816;37.036;2023-06-19T02:54:59;5.53;;;2.00;;
72797;SDS011;61084;55.816;37.036;2023-06-19T02:57:25;6.82;;;2.60;;
72797;SDS011;61084;55.816;37.036;2023-06-19T02:59:51;4.85;;;2.20;;
72797;SDS011;61084;55.816;37.036;2023-06-19T03:02:17;3.55;;;2.00;;
72797;SDS011;61084;55.816;37.036;2023-06-19T03:04:43;4.82;;;2.70;;
72797;SDS011;61084;55.816;37.036;2023-06-19T03:07:09;4.95;;;2.75;;
72797;SDS011;61084;55.816;37.036;2023-06-19T03:09:36;3.60;;;2.20;;
72797;SDS011;61084;55.816;37.036;2023-06-19T03:12:02;4.32;;;2.22;;
72797;SDS011;61084;55.816;37.036;2023-06-19T03:14:29;4.88;;;2.40;;
72797;SDS011;61084;55.816;37.036;2023-06-19T03:16:56;7.90;;;2.85;;
72797;SDS011;61084;55.816;37.036;2023-06-19T03:19:22;4.03;;;2.17;;
72797;SDS011;61084;55.816;37.036;2023-06-19T03:21:48;8.18;;;2.10;;
72797;SDS011;61084;55.816;37.036;2023-06-19T03:24:14;6.13;;;2.47;;
72797;SDS011;61084;55.816;37.036;2023-06-19T03:29:07;9.07;;;2.28;;
72797;SDS011;61084;55.816;37.036;2023-06-19T03:31:49;6.97;;;1.98;;
72797;SDS011;61084;55.816;37.036;2023-06-19T03:34:17;4.90;;;2.05;;
72797;SDS011;61084;55.816;37.036;2023-06-19T03:36:43;6.72;;;2.35;;
72797;SDS011;61084;55.816;37.036;2023-06-19T03:39:10;5.80;;;2.45;;
72797;SDS011;61084;55.816;37.036;2023-06-19T03:41:37;7.18;;;2.92;;
72797;SDS011;61084;55.816;37.036;2023-06-19T03:44:03;6.63;;;2.45;;
72797;SDS011;61084;55.816;37.036;2023-06-19T03:46:29;4.90;;;2.10;;
72797;SDS011;61084;55.816;37.036;2023-06-19T03:48:56;4.78;;;1.98;;
72797;SDS011;61084;55.816;37.036;2023-06-19T03:51:21;6.38;;;2.10;;
72797;SDS011;61084;55.816;37.036;2023-06-19T03:53:47;4.50;;;1.98;;
72797;SDS011;61084;55.816;37.036;2023-06-19T03:56:16;5.32;;;1.90;;
72797;SDS011;61084;55.816;37.036;2023-06-19T03:58:42;5.22;;;1.80;;
72797;SDS011;61084;55.816;37.036;2023-06-19T04:01:08;5.03;;;1.60;;
72797;SDS011;61084;55.816;37.036;2023-06-19T04:03:34;6.70;;;2.10;;
72797;SDS011;61084;55.816;37.036;2023-06-19T04:06:01;3.63;;;1.88;;
72797;SDS011;61084;55.816;37.036;2023-06-19T04:08:27;5.47;;;2.20;;
72797;SDS011;61084;55.816;37.036;2023-06-19T04:10:53;3.65;;;1.90;;
72797;SDS011;61084;55.816;37.036;2023-06-19T04:13:18;4.90;;;2.22;;
72797;SDS011;61084;55.816;37.036;2023-06-19T04:15:44;3.35;;;1.88;;
72797;SDS011;61084;55.816;37.036;2023-06-19T04:18:10;2.47;;;1.80;;
72797;SDS011;61084;55.816;37.036;2023-06-19T04:20:37;5.82;;;1.88;;
72797;SDS011;61084;55.816;37.036;2023-06-19T04:23:03;4.72;;;1.80;;
72797;SDS011;61084;55.816;37.036;2023-06-19T04:25:29;6.70;;;1.92;;
72797;SDS011;61084;55.816;37.036;2023-06-19T04:27:56;8.10;;;1.98;;
72797;SDS011;61084;55.816;37.036;2023-06-19T04:30:22;3.05;;;1.83;;
72797;SDS011;61084;55.816;37.036;2023-06-19T04:32:48;3.88;;;1.70;;
72797;SDS011;61084;55.816;37.036;2023-06-19T04:35:14;3.97;;;1.73;;
72797;SDS011;61084;55.816;37.036;2023-06-19T04:37:40;3.75;;;1.83;;
72797;SDS011;61084;55.816;37.036;2023-06-19T04:40:06;5.68;;;1.88;;
72797;SDS011;61084;55.816;37.036;2023-06-19T04:42:33;6.22;;;1.73;;
72797;SDS011;61084;55.816;37.036;2023-06-19T04:44:59;7.75;;;1.98;;
72797;SDS011;61084;55.816;37.036;2023-06-19T04:49:51;6.28;;;1.90;;
72797;SDS011;61084;55.816;37.036;2023-06-19T04:52:17;5.97;;;1.90;;
72797;SDS011;61084;55.816;37.036;2023-06-19T04:54:44;6.40;;;1.80;;
72797;SDS011;61084;55.816;37.036;2023-06-19T04:57:10;3.85;;;1.95;;
72797;SDS011;61084;55.816;37.036;2023-06-19T04:59:36;3.83;;;1.60;;
72797;SDS011;61084;55.816;37.036;2023-06-19T05:02:02;9.73;;;1.90;;
72797;SDS011;61084;55.816;37.036;2023-06-19T05:04:28;4.00;;;2.22;;
72797;SDS011;61084;55.816;37.036;2023-06-19T05:06:58;2.88;;;1.52;;
72797;SDS011;61084;55.816;37.036;2023-06-19T05:09:43;4.43;;;2.25;;
72797;SDS011;61084;55.816;37.036;2023-06-19T05:12:09;4.68;;;1.60;;
72797;SDS011;61084;55.816;37.036;2023-06-19T05:14:38;3.95;;;1.85;;
72797;SDS011;61084;55.816;37.036;2023-06-19T05:17:04;3.83;;;1.35;;
72797;SDS011;61084;55.816;37.036;2023-06-19T05:19:30;2.83;;;1.38;;
72797;SDS011;61084;55.816;37.036;2023-06-19T05:21:56;3.10;;;1.30;;
72797;SDS011;61084;55.816;37.036;2023-06-19T05:24:22;2.33;;;1.30;;
72797;SDS011;61084;55.816;37.036;2023-06-19T05:26:47;2.80;;;1.80;;
72797;SDS011;61084;55.816;37.036;2023-06-19T05:29:13;4.28;;;2.08;;
72797;SDS011;61084;55.816;37.036;2023-06-19T05:31:39;2.97;;;1.60;;
72797;SDS011;61084;55.816;37.036;2023-06-19T05:34:04;4.65;;;1.67;;
72797;SDS011;61084;55.816;37.036;2023-06-19T05:36:30;5.38;;;1.75;;
72797;SDS011;61084;55.816;37.036;2023-06-19T05:38:56;5.97;;;2.17;;
72797;SDS011;61084;55.816;37.036;2023-06-19T05:41:22;7.00;;;1.77;;
72797;SDS011;61084;55.816;37.036;2023-06-19T05:43:48;2.63;;;1.52;;
72797;SDS011;61084;55.816;37.036;2023-06-19T05:46:13;3.20;;;1.50;;
72797;SDS011;61084;55.816;37.036;2023-06-19T05:48:39;4.03;;;1.67;;
72797;SDS011;61084;55.816;37.036;2023-06-19T05:51:05;2.83;;;1.70;;
72797;SDS011;61084;55.816;37.036;2023-06-19T05:53:31;6.03;;;1.42;;
72797;SDS011;61084;55.816;37.036;2023-06-19T05:55:57;4.45;;;1.52;;
72797;SDS011;61084;55.816;37.036;2023-06-19T05:58:23;2.40;;;1.45;;
72797;SDS011;61084;55.816;37.036;2023-06-19T06:01:09;2.60;;;1.52;;
72797;SDS011;61084;55.816;37.036;2023-06-19T06:06:39;3.72;;;1.85;;
72797;SDS011;61084;55.816;37.036;2023-06-19T06:09:05;7.45;;;1.55;;
72797;SDS011;61084;55.816;37.036;2023-06-19T06:11:30;2.75;;;1.33;;
72797;SDS011;61084;55.816;37.036;2023-06-19T06:13:56;2.60;;;1.52;;
72797;SDS011;61084;55.816;37.036;2023-06-19T06:16:22;2.85;;;1.38;;
72797;SDS011;61084;55.816;37.036;2023-06-19T06:19:07;3.45;;;1.40;;
72797;SDS011;61084;55.816;37.036;2023-06-19T06:21:32;3.60;;;1.70;;
72797;SDS011;61084;55.816;37.036;2023-06-19T06:24:00;9.80;;;2.10;;
72797;SDS011;61084;55.816;37.036;2023-06-19T06:26:44;3.83;;;1.73;;
72797;SDS011;61084;55.816;37.036;2023-06-19T06:29:29;3.88;;;1.90;;
72797;SDS011;61084;55.816;37.036;2023-06-19T06:32:13;3.50;;;1.63;;
72797;SDS011;61084;55.816;37.036;2023-06-19T06:34:39;6.13;;;1.70;;
72797;SDS011;61084;55.816;37.036;2023-06-19T06:37:05;3.45;;;1.60;;
72797;SDS011;61084;55.816;37.036;2023-06-19T06:39:31;3.58;;;1.60;;
72797;SDS011;61084;55.816;37.036;2023-06-19T06:41:56;5.45;;;1.77;;
72797;SDS011;61084;55.816;37.036;2023-06-19T06:44:22;3.92;;;1.50;;
72797;SDS011;61084;55.816;37.036;2023-06-19T06:47:07;7.07;;;1.63;;
72797;SDS011;61084;55.816;37.036;2023-06-19T06:49:33;3.70;;;1.60;;
72797;SDS011;61084;55.816;37.036;2023-06-19T06:51:58;3.15;;;1.60;;
72797;SDS011;61084;55.816;37.036;2023-06-19T06:54:24;2.15;;;1.27;;
72797;SDS011;61084;55.816;37.036;2023-06-19T06:56:50;5.68;;;1.73;;
72797;SDS011;61084;55.816;37.036;2023-06-19T06:59:18;2.97;;;1.77;;
72797;SDS011;61084;55.816;37.036;2023-06-19T07:01:43;2.75;;;1.60;;
72797;SDS011;61084;55.816;37.036;2023-06-19T07:04:09;5.45;;;1.52;;
72797;SDS011;61084;55.816;37.036;2023-06-19T07:07:12;2.05;;;1.52;;
72797;SDS011;61084;55.816;37.036;2023-06-19T07:09:38;3.28;;;1.42;;
72797;SDS011;61084;55.816;37.036;2023-06-19T07:12:04;3.53;;;1.70;;
72797;SDS011;61084;55.816;37.036;2023-06-19T07:14:32;3.40;;;1.50;;
72797;SDS011;61084;55.816;37.036;2023-06-19T07:22:08;2.08;;;1.67;;
72797;SDS011;61084;55.816;37.036;2023-06-19T07:24:34;3.47;;;1.73;;
72797;SDS011;61084;55.816;37.036;2023-06-19T07:27:00;2.42;;;1.73;;
72797;SDS011;61084;55.816;37.036;2023-06-19T07:29:26;3.03;;;1.50;;
72797;SDS011;61084;55.816;37.036;2023-06-19T07:31:52;3.33;;;1.95;;
72797;SDS011;61084;55.816;37.036;2023-06-19T07:34:18;2.33;;;1.67;;
72797;SDS011;61084;55.816;37.036;2023-06-19T07:36:44;3.40;;;1.40;;
72797;SDS011;61084;55.816;37.036;2023-06-19T07:39:10;3.63;;;2.08;;
72797;SDS011;61084;55.816;37.036;2023-06-19T07:41:36;2.35;;;2.00;;
72797;SDS011;61084;55.816;37.036;2023-06-19T07:44:02;5.43;;;1.98;;
72797;SDS011;61084;55.816;37.036;2023-06-19T07:46:28;6.10;;;3.88;;
72797;SDS011;61084;55.816;37.036;2023-06-19T07:48:53;9.38;;;5.35;;
72797;SDS011;61084;55.816;37.036;2023-06-19T07:51:20;5.43;;;2.47;;
72797;SDS011;61084;55.816;37.036;2023-06-19T07:53:46;5.25;;;1.83;;
72797;SDS011;61084;55.816;37.036;2023-06-19T07:56:11;2.45;;;1.77;;
72797;SDS011;61084;55.816;37.036;2023-06-19T07:58:37;4.63;;;1.85;;
72797;SDS011;61084;55.816;37.036;2023-06-19T08:01:03;4.82;;;2.17;;
72797;SDS011;61084;55.816;37.036;2023-06-19T08:03:29;3.70;;;2.35;;
72797;SDS011;61084;55.816;37.036;2023-06-19T08:05:56;5.15;;;1.77;;
72797;SDS011;61084;55.816;37.036;2023-06-19T08:08:22;4.43;;;1.92;;
72797;SDS011;61084;55.816;37.036;2023-06-19T08:10:48;2.83;;;1.63;;
72797;SDS011;61084;55.816;37.036;2023-06-19T08:13:13;3.90;;;2.10;;
72797;SDS011;61084;55.816;37.036;2023-06-19T08:15:39;3.92;;;2.08;;
72797;SDS011;61084;55.816;37.036;2023-06-19T08:20:31;2.75;;;1.60;;
72797;SDS011;61084;55.816;37.036;2023-06-19T08:22:56;9.98;;;1.85;;
72797;SDS011;61084;55.816;37.036;2023-06-19T08:27:48;2.85;;;1.60;;
72797;SDS011;61084;55.816;37.036;2023-06-19T08:30:14;5.38;;;2.50;;
72797;SDS011;61084;55.816;37.036;2023-06-19T08:32:40;2.85;;;1.90;;
72797;SDS011;61084;55.816;37.036;2023-06-19T08:35:24;4.85;;;1.70;;
72797;SDS011;61084;55.816;37.036;2023-06-19T08:38:08;4.00;;;1.70;;
72797;SDS011;61084;55.816;37.036;2023-06-19T08:43:18;4.32;;;1.30;;
72797;SDS011;61084;55.816;37.036;2023-06-19T08:45:52;3.92;;;1.63;;
72797;SDS011;61084;55.816;37.036;2023-06-19T08:48:45;4.68;;;1.80;;
72797;SDS011;61084;55.816;37.036;2023-06-19T08:51:11;2.42;;;2.17;;
72797;SDS011;61084;55.816;37.036;2023-06-19T08:53:47;3.42;;;1.67;;
72797;SDS011;61084;55.816;37.036;2023-06-19T08:56:15;3.78;;;1.55;;
72797;SDS011;61084;55.816;37.036;2023-06-19T08:58:42;5.45;;;1.70;;
72797;SDS011;61084;55.816;37.036;2023-06-19T09:03:52;1.73;;;1.52;;
72797;SDS011;61084;55.816;37.036;2023-06-19T09:06:19;3.80;;;1.55;;
72797;SDS011;61084;55.816;37.036;2023-06-19T09:11:35;3.85;;;1.85;;
72797;SDS011;61084;55.816;37.036;2023-06-19T09:16:45;3.15;;;1.60;;
72797;SDS011;61084;55.816;37.036;2023-06-19T09:24:49;3.67;;;1.67;;
72797;SDS011;61084;55.816;37.036;2023-06-19T09:27:16;3.55;;;1.90;;
72797;SDS011;61084;55.816;37.036;2023-06-19T09:30:20;3.05;;;2.00;;
72797;SDS011;61084;55.816;37.036;2023-06-19T09:33:27;2.33;;;1.65;;
72797;SDS011;61084;55.816;37.036;2023-06-19T09:38:43;1.70;;;1.58;;
72797;SDS011;61084;55.816;37.036;2023-06-19T09:41:29;2.40;;;1.70;;
72797;SDS011;61084;55.816;37.036;2023-06-19T09:43:55;4.45;;;1.52;;
72797;SDS011;61084;55.816;37.036;2023-06-19T09:46:26;2.92;;;1.63;;
72797;SDS011;61084;55.816;37.036;2023-06-19T09:48:56;3.60;;;1.73;;
72797;SDS011;61084;55.816;37.036;2023-06-19T09:51:29;3.83;;;1.50;;
72797;SDS011;61084;55.816;37.036;2023-06-19T09:53:57;2.45;;;1.60;;
72797;SDS011;61084;55.816;37.036;2023-06-19T09:56:43;2.05;;;1.80;;
72797;SDS011;61084;55.816;37.036;2023-06-19T09:59:28;2.15;;;1.88;;
72797;SDS011;61084;55.816;37.036;2023-06-19T10:01:54;3.20;;;2.40;;
72797;SDS011;61084;55.816;37.036;2023-06-19T10:07:44;8.88;;;2.72;;
72797;SDS011;61084;55.816;37.036;2023-06-19T10:10:22;5.68;;;2.08;;
72797;SDS011;61084;55.816;37.036;2023-06-19T10:12:49;2.75;;;2.03;;
72797;SDS011;61084;55.816;37.036;2023-06-19T10:15:34;6.03;;;2.28;;
72797;SDS011;61084;55.816;37.036;2023-06-19T10:21:21;3.33;;;1.70;;
72797;SDS011;61084;55.816;37.036;2023-06-19T10:24:06;3.53;;;1.58;;
72797;SDS011;61084;55.816;37.036;2023-06-19T10:29:16;2.17;;;1.30;;
72797;SDS011;61084;55.816;37.036;2023-06-19T10:31:43;4.68;;;1.60;;
72797;SDS011;61084;55.816;37.036;2023-06-19T10:34:10;3.50;;;1.40;;
72797;SDS011;61084;55.816;37.036;2023-06-19T10:36:37;2.75;;;1.80;;
72797;SDS011;61084;55.816;37.036;2023-06-19T10:39:21;2.95;;;1.80;;
72797;SDS011;61084;55.816;37.036;2023-06-19T10:44:50;2.25;;;1.75;;
72797;SDS011;61084;55.816;37.036;2023-06-19T10:49:42;2.15;;;1.58;;
72797;SDS011;61084;55.816;37.036;2023-06-19T11:03:25;2.53;;;1.77;;
72797;SDS011;61084;55.816;37.036;2023-06-19T11:08:54;3.85;;;1.73;;
72797;SDS011;61084;55.816;37.036;2023-06-19T11:11:20;3.60;;;1.73;;
72797;SDS011;61084;55.816;37.036;2023-06-19T11:14:04;3.55;;;1.77;;
72797;SDS011;61084;55.816;37.036;2023-06-19T11:19:33;5.18;;;1.60;;
72797;SDS011;61084;55.816;37.036;2023-06-19T11:21:59;1.98;;;1.77;;
72797;SDS011;61084;55.816;37.036;2023-06-19T11:24:28;3.53;;;2.10;;
72797;SDS011;61084;55.816;37.036;2023-06-19T11:26:55;3.70;;;1.60;;
72797;SDS011;61084;55.816;37.036;2023-06-19T11:29:24;5.25;;;2.03;;
72797;SDS011;61084;55.816;37.036;2023-06-19T11:31:53;5.63;;;1.80;;
72797;SDS011;61084;55.816;37.036;2023-06-19T11:34:50;6.50;;;1.60;;
72797;SDS011;61084;55.816;37.036;2023-06-19T11:37:40;1.73;;;1.60;;
72797;SDS011;61084;55.816;37.036;2023-06-19T11:40:08;7.65;;;1.90;;
72797;SDS011;61084;55.816;37.036;2023-06-19T11:42:55;3.17;;;1.67;;
72797;SDS011;61084;55.816;37.036;2023-06-19T11:45:21;2.75;;;1.73;;
72797;SDS011;61084;55.816;37.036;2023-06-19T11:53:35;10.23;;;1.70;;
72797;SDS011;61084;55.816;37.036;2023-06-19T11:56:01;3.33;;;1.48;;
72797;SDS011;61084;55.816;37.036;2023-06-19T12:01:13;12.30;;;1.98;;
72797;SDS011;61084;55.816;37.036;2023-06-19T12:03:39;2.55;;;1.77;;
72797;SDS011;61084;55.816;37.036;2023-06-19T12:06:06;1.98;;;1.70;;
72797;SDS011;61084;55.816;37.036;2023-06-19T12:08:32;6.18;;;1.90;;
72797;SDS011;61084;55.816;37.036;2023-06-19T12:10:58;2.67;;;1.20;;
72797;SDS011;61084;55.816;37.036;2023-06-19T12:13:24;2.03;;;1.75;;
72797;SDS011;61084;55.816;37.036;2023-06-19T12:15:50;3.72;;;2.40;;
72797;SDS011;61084;55.816;37.036;2023-06-19T12:24:04;1.65;;;1.40;;
72797;SDS011;61084;55.816;37.036;2023-06-19T12:26:34;3.75;;;1.40;;
72797;SDS011;61084;55.816;37.036;2023-06-19T12:29:02;2.60;;;1.55;;
72797;SDS011;61084;55.816;37.036;2023-06-19T12:31:47;3.90;;;1.65;;
72797;SDS011;61084;55.816;37.036;2023-06-19T12:34:13;3.55;;;2.00;;
72797;SDS011;61084;55.816;37.036;2023-06-19T12:36:39;2.33;;;1.33;;
72797;SDS011;61084;55.816;37.036;2023-06-19T12:39:05;3.65;;;1.40;;
72797;SDS011;61084;55.816;37.036;2023-06-19T12:41:39;5.90;;;1.60;;
72797;SDS011;61084;55.816;37.036;2023-06-19T12:44:23;3.10;;;1.80;;
72797;SDS011;61084;55.816;37.036;2023-06-19T12:46:50;2.88;;;1.67;;
72797;SDS011;61084;55.816;37.036;2023-06-19T12:49:34;2.30;;;1.60;;
72797;SDS011;61084;55.816;37.036;2023-06-19T12:54:44;2.65;;;1.65;;
72797;SDS011;61084;55.816;37.036;2023-06-19T13:00:34;2.95;;;1.90;;
72797;SDS011;61084;55.816;37.036;2023-06-19T13:03:00;3.22;;;1.70;;
72797;SDS011;61084;55.816;37.036;2023-06-19T13:05:26;3.20;;;1.90;;
72797;SDS011;61084;55.816;37.036;2023-06-19T13:07:52;4.40;;;1.77;;
72797;SDS011;61084;55.816;37.036;2023-06-19T13:10:17;2.65;;;1.70;;
72797;SDS011;61084;55.816;37.036;2023-06-19T13:13:02;3.20;;;1.88;;
72797;SDS011;61084;55.816;37.036;2023-06-19T13:15:28;1.95;;;1.60;;
72797;SDS011;61084;55.816;37.036;2023-06-19T13:17:53;3.25;;;2.00;;
72797;SDS011;61084;55.816;37.036;2023-06-19T13:20:19;2.80;;;1.60;;
72797;SDS011;61084;55.816;37.036;2023-06-19T13:22:45;4.10;;;1.85;;
72797;SDS011;61084;55.816;37.036;2023-06-19T13:28:14;3.17;;;1.77;;
72797;SDS011;61084;55.816;37.036;2023-06-19T13:30:59;4.38;;;2.00;;
72797;SDS011;61084;55.816;37.036;2023-06-19T13:33:25;2.10;;;1.63;;
72797;SDS011;61084;55.816;37.036;2023-06-19T13:35:51;4.25;;;1.63;;
72797;SDS011;61084;55.816;37.036;2023-06-19T13:41:21;2.33;;;1.90;;
72797;SDS011;61084;55.816;37.036;2023-06-19T13:44:05;5.22;;;1.95;;
72797;SDS011;61084;55.816;37.036;2023-06-19T13:46:31;3.38;;;1.65;;
72797;SDS011;61084;55.816;37.036;2023-06-19T13:48:57;1.55;;;1.30;;
72797;SDS011;61084;55.816;37.036;2023-06-19T13:56:53;1.95;;;1.52;;
72797;SDS011;61084;55.816;37.036;2023-06-19T13:59:38;4.18;;;1.70;;
72797;SDS011;61084;55.816;37.036;2023-06-19T14:02:04;4.80;;;1.63;;
72797;SDS011;61084;55.816;37.036;2023-06-19T14:10:19;4.00;;;1.52;;
72797;SDS011;61084;55.816;37.036;2023-06-19T14:15:48;3.92;;;1.58;;
72797;SDS011;61084;55.816;37.036;2023-06-19T14:18:14;2.22;;;1.67;;
72797;SDS011;61084;55.816;37.036;2023-06-19T14:23:43;2.03;;;1.50;;
72797;SDS011;61084;55.816;37.036;2023-06-19T14:26:27;7.55;;;1.95;;
72797;SDS011;61084;55.816;37.036;2023-06-19T14:28:53;4.30;;;1.50;;
72797;SDS011;61084;55.816;37.036;2023-06-19T14:31:38;2.75;;;1.67;;
72797;SDS011;61084;55.816;37.036;2023-06-19T14:34:22;2.17;;;1.60;;
72797;SDS011;61084;55.816;37.036;2023-06-19T14:36:48;3.90;;;1.65;;
72797;SDS011;61084;55.816;37.036;2023-06-19T14:39:14;2.17;;;1.70;;
72797;SDS011;61084;55.816;37.036;2023-06-19T14:41:40;3.95;;;1.63;;
72797;SDS011;61084;55.816;37.036;2023-06-19T14:44:25;3.65;;;2.03;;
72797;SDS011;61084;55.816;37.036;2023-06-19T14:49:54;2.53;;;1.70;;
72797;SDS011;61084;55.816;37.036;2023-06-19T14:52:20;2.60;;;1.83;;
72797;SDS011;61084;55.816;37.036;2023-06-19T14:55:04;1.60;;;1.50;;
72797;SDS011;61084;55.816;37.036;2023-06-19T14:57:31;3.70;;;1.63;;
72797;SDS011;61084;55.816;37.036;2023-06-19T14:59:57;2.63;;;1.60;;
72797;SDS011;61084;55.816;37.036;2023-06-19T15:02:22;3.45;;;1.73;;
72797;SDS011;61084;55.816;37.036;2023-06-19T15:05:07;3.20;;;2.00;;
72797;SDS011;61084;55.816;37.036;2023-06-19T15:07:51;2.50;;;2.00;;
72797;SDS011;61084;55.816;37.036;2023-06-19T15:13:20;3.08;;;2.30;;
72797;SDS011;61084;55.816;37.036;2023-06-19T15:16:05;4.13;;;2.00;;
72797;SDS011;61084;55.816;37.036;2023-06-19T15:18:33;2.85;;;1.67;;
72797;SDS011;61084;55.816;37.036;2023-06-19T15:20:59;3.25;;;1.85;;
72797;SDS011;61084;55.816;37.036;2023-06-19T15:26:09;2.67;;;1.75;;
72797;SDS011;61084;55.816;37.036;2023-06-19T15:28:35;3.00;;;2.35;;
72797;SDS011;61084;55.816;37.036;2023-06-19T15:31:20;3.60;;;1.80;;
72797;SDS011;61084;55.816;37.036;2023-06-19T15:33:48;6.65;;;1.80;;
72797;SDS011;61084;55.816;37.036;2023-06-19T15:36:14;9.38;;;2.10;;
72797;SDS011;61084;55.816;37.036;2023-06-19T15:38:40;4.28;;;2.17;;
72797;SDS011;61084;55.816;37.036;2023-06-19T15:41:06;8.00;;;2.10;;
72797;SDS011;61084;55.816;37.036;2023-06-19T15:43:32;3.20;;;1.90;;
72797;SDS011;61084;55.816;37.036;2023-06-19T15:45:58;6.13;;;1.73;;
72797;SDS011;61084;55.816;37.036;2023-06-19T15:48:24;11.10;;;2.08;;
72797;SDS011;61084;55.816;37.036;2023-06-19T15:51:08;8.43;;;1.80;;
72797;SDS011;61084;55.816;37.036;2023-06-19T15:53:38;3.70;;;2.08;;
72797;SDS011;61084;55.816;37.036;2023-06-19T15:58:49;6.25;;;1.80;;
72797;SDS011;61084;55.816;37.036;2023-06-19T16:01:16;2.47;;;1.73;;
72797;SDS011;61084;55.816;37.036;2023-06-19T16:03:43;2.33;;;1.98;;
72797;SDS011;61084;55.816;37.036;2023-06-19T16:06:09;4.38;;;1.85;;
72797;SDS011;61084;55.816;37.036;2023-06-19T16:08:35;6.15;;;1.75;;
72797;SDS011;61084;55.816;37.036;2023-06-19T16:11:00;5.10;;;2.28;;
72797;SDS011;61084;55.816;37.036;2023-06-19T16:13:30;3.90;;;1.75;;
72797;SDS011;61084;55.816;37.036;2023-06-19T16:15:56;3.80;;;1.88;;
72797;SDS011;61084;55.816;37.036;2023-06-19T16:18:41;3.75;;;2.15;;
72797;SDS011;61084;55.816;37.036;2023-06-19T16:21:25;2.20;;;1.70;;
72797;SDS011;61084;55.816;37.036;2023-06-19T16:26:54;4.28;;;1.60;;
72797;SDS011;61084;55.816;37.036;2023-06-19T16:32:05;3.30;;;1.70;;
72797;SDS011;61084;55.816;37.036;2023-06-19T16:34:31;3.13;;;2.15;;
72797;SDS011;61084;55.816;37.036;2023-06-19T16:39:23;2.75;;;1.52;;
72797;SDS011;61084;55.816;37.036;2023-06-19T16:47:39;5.53;;;2.22;;
72797;SDS011;61084;55.816;37.036;2023-06-19T16:52:30;4.38;;;2.25;;
72797;SDS011;61084;55.816;37.036;2023-06-19T16:57:22;3.80;;;2.38;;
72797;SDS011;61084;55.816;37.036;2023-06-19T17:00:06;3.30;;;2.22;;
72797;SDS011;61084;55.816;37.036;2023-06-19T17:02:34;3.28;;;2.05;;
72797;SDS011;61084;55.816;37.036;2023-06-19T17:07:44;4.97;;;2.10;;
72797;SDS011;61084;55.816;37.036;2023-06-19T17:10:10;5.32;;;2.30;;
72797;SDS011;61084;55.816;37.036;2023-06-19T17:12:56;4.07;;;2.08;;
72797;SDS011;61084;55.816;37.036;2023-06-19T17:15:40;5.15;;;2.08;;
72797;SDS011;61084;55.816;37.036;2023-06-19T17:18:24;4.32;;;1.98;;
72797;SDS011;61084;55.816;37.036;2023-06-19T17:20:50;2.30;;;1.70;;